Hlavní strana
METAR-TAF:

METAR-TAF

Letiště :

Oulu, Finsko

zeměpisná šířka: 64-56N, zeměpisná délka: 025-22E, výška: 12 m

Aktuální stav počasí

Zpráva byla vytvořena před 36 minutami, v 02:50 UTC
Východojihovýchodní vítr 3 kt
Teplota -12°C
Vlhkost vzduchu 92%
Tlak 990 hPa
Viditelnost 10 km a více
Žádná oblačnost pod 1500 m, nevyskytují se cumulonimby.

METAR: EFOU 020250Z AUTO 12003KT CAVOK M12/M13 Q0990

Čas: 06:26 (03:26 UTC)

Předpověď počasí

Zpráva byla vytvořena před 1 hodinou a 5 minutami, v 02:21 UTC
Předpověď platná od 02 v 03 UTC do 03 v 03 UTC
Jihozápadní vítr 3 kt
Viditelnost 10 km a více
Žádná oblačnost pod 1500 m, nevyskytují se cumulonimby.
Změna
od 02 v 10 UTC do 02 v 12 UTC
Východní vítr 12 kt
Dočasný
od 02 v 15 UTC do 02 v 19 UTC
Viditelnost: 3000 m
slabé sněžení
Změna
od 02 v 19 UTC do 02 v 21 UTC
Oblačno až skoro zataženo ve výšce 1400 ft

TAF: EFOU 020221Z 0203/0303 23003KT CAVOK BECMG 0210/0212 10012KT TEMPO 0215/0219 3000 -SN BECMG 0219/0221 BKN014

Stav a předpovědi počasí z více než 4 000 letišť (zprávy METAR a TAF).

Červené a žluté tečky na mapě představují dostupné meteorologické stanice.

Když kurzor umístíte na tečku, zobrazí se název stanice.

Pak kliknutím zobrazíte stav a předpověď počasí.

Chcete-li změnit mapu, kliknutím na zelené tlačítko se znaménkem +mapu přiblížíte, kliknutím na zelené tlačítko se znaménkem – mapu oddálíte a kliknutím na zelené šipky přejdete na sousední mapy.


METAR-TAF: